Antonino, Kansas
Current Conditions -  °F | °C
As of 6:35 PM on Saturday 25 Oct 2014 (Local Time) from KHYS Reporting Station
Clear Clear  
Wind Chill: 79°   Ceiling: Unl
Heat Index: 79°   Visibility: 10mi
Dew Point: 52°   Wind: 12mph
Humidity: 39%   Direction: 150°SSE
Pressure: 29.95"   Gusts: NA
Location:  38.8338°N, 99.3297°W
Report Text: KHYS 252335Z AUTO 15010KT 10SM CLR 26/11 A2995 RMK AO1
Loading
Personal Weather Stations






























Interactive Weather Map
Tropical Storm Tracking
New forecast layout! Learn more

10-Day Weather Forecast

Advertisements
Track Severe Weather on mobile